createdAt,value
2023-04-15T00:00:13.653Z,10.68
2023-04-15T00:05:36.607Z,10.67
2023-04-15T00:10:39.525Z,10.66
2023-04-15T00:15:43.416Z,10.66
2023-04-15T00:20:46.357Z,10.66
2023-04-15T00:25:49.234Z,10.64
2023-04-15T00:30:52.206Z,10.65
2023-04-15T00:35:55.053Z,10.64
2023-04-15T00:40:58.079Z,10.64
2023-04-15T00:46:04.092Z,10.63
2023-04-15T00:51:07.828Z,10.62
2023-04-15T00:56:10.742Z,10.61
2023-04-15T01:01:14.171Z,10.60
2023-04-15T01:06:20.719Z,10.58
2023-04-15T01:11:24.632Z,10.55
2023-04-15T01:16:28.826Z,10.55
2023-04-15T01:21:31.768Z,10.54
2023-04-15T01:26:35.084Z,10.51
2023-04-15T01:31:38.097Z,10.50
2023-04-15T01:36:41.167Z,10.50
2023-04-15T01:41:44.313Z,10.48
2023-04-15T01:46:48.503Z,10.48
2023-04-15T01:51:51.345Z,10.48
2023-04-15T01:56:54.342Z,10.46
2023-04-15T02:01:57.525Z,10.44
2023-04-15T02:07:00.852Z,10.45
2023-04-15T02:12:03.784Z,10.46
2023-04-15T02:17:09.416Z,10.45
2023-04-15T02:22:18.371Z,10.45
2023-04-15T02:27:22.625Z,10.45
2023-04-15T02:32:25.670Z,10.45
2023-04-15T02:37:30.558Z,10.46
2023-04-15T02:42:33.518Z,10.47
2023-04-15T02:47:36.583Z,10.45
2023-04-15T02:52:43.511Z,10.46
2023-04-15T02:57:46.574Z,10.48
2023-04-15T03:02:52.601Z,10.48
2023-04-15T03:07:55.647Z,10.48
2023-04-15T03:12:58.507Z,10.48
2023-04-15T03:18:01.613Z,10.49
2023-04-15T03:23:04.888Z,10.49
2023-04-15T03:28:07.935Z,10.48
2023-04-15T03:33:11.020Z,10.49
2023-04-15T03:38:13.849Z,10.49
2023-04-15T03:43:16.784Z,10.48
2023-04-15T03:48:19.697Z,10.51
2023-04-15T03:53:23.341Z,10.50
2023-04-15T03:58:26.207Z,10.51
2023-04-15T04:03:29.242Z,10.51
2023-04-15T04:08:32.281Z,10.51
2023-04-15T04:13:35.553Z,10.51
2023-04-15T04:18:38.423Z,10.51
2023-04-15T04:23:41.346Z,10.51
2023-04-15T04:28:44.201Z,10.52
2023-04-15T04:33:47.135Z,10.55
2023-04-15T04:38:50.215Z,10.57
2023-04-15T04:43:53.107Z,10.59
2023-04-15T04:48:55.957Z,10.66
2023-04-15T04:53:58.933Z,10.68
2023-04-15T04:59:02.127Z,10.70
2023-04-15T05:04:06.186Z,10.71
2023-04-15T05:09:09.082Z,10.73
2023-04-15T05:14:11.993Z,10.76
2023-04-15T05:19:14.796Z,10.75
2023-04-15T05:24:18.375Z,10.80
2023-04-15T05:29:21.627Z,10.79
2023-04-15T05:34:24.473Z,10.77
2023-04-15T05:39:27.651Z,10.75
2023-04-15T05:44:30.589Z,10.77
2023-04-15T05:49:33.406Z,10.78
2023-04-15T05:54:36.817Z,10.83
2023-04-15T05:59:39.645Z,10.80
2023-04-15T06:04:42.742Z,10.77
2023-04-15T06:09:46.018Z,10.81
2023-04-15T06:14:48.850Z,10.81
2023-04-15T06:19:55.583Z,10.87
2023-04-15T06:24:58.802Z,10.97
2023-04-15T06:30:01.789Z,11.04
2023-04-15T06:35:05.654Z,11.14
2023-04-15T06:40:10.199Z,11.16
2023-04-15T06:45:13.151Z,11.16
2023-04-15T06:50:16.195Z,11.20
2023-04-15T06:55:19.143Z,11.24
2023-04-15T07:00:22.493Z,11.29
2023-04-15T07:05:25.507Z,11.37
2023-04-15T07:10:28.324Z,11.38
2023-04-15T07:15:31.243Z,11.29
2023-04-15T07:20:34.236Z,11.31
2023-04-15T07:25:37.262Z,11.33
2023-04-15T07:30:40.295Z,11.25
2023-04-15T07:35:43.662Z,11.26
2023-04-15T07:40:47.139Z,11.24
2023-04-15T07:45:50.173Z,11.25
2023-04-15T07:50:54.170Z,11.21
2023-04-15T07:55:57.505Z,11.25
2023-04-15T08:01:00.935Z,11.25
2023-04-15T08:06:04.093Z,11.23
2023-04-15T08:11:06.998Z,11.21
2023-04-15T08:16:28.175Z,11.25
2023-04-15T08:21:31.414Z,11.30
2023-04-15T08:26:34.252Z,11.35
2023-04-15T08:31:37.324Z,11.40
2023-04-15T08:36:40.244Z,11.40
2023-04-15T08:41:59.336Z,11.50
2023-04-15T08:47:03.541Z,11.52
2023-04-15T08:52:07.540Z,11.60
2023-04-15T08:57:11.046Z,11.56
2023-04-15T09:02:14.057Z,11.44
2023-04-15T09:07:16.971Z,11.49
2023-04-15T09:12:19.852Z,11.58
2023-04-15T09:17:22.861Z,11.60
2023-04-15T09:22:33.134Z,11.56
2023-04-15T09:27:37.554Z,11.61
2023-04-15T09:32:58.049Z,11.66
2023-04-15T09:38:10.509Z,11.64
2023-04-15T09:43:13.776Z,11.62
2023-04-15T09:48:23.165Z,11.52
2023-04-15T09:53:29.825Z,11.46
2023-04-15T09:58:37.281Z,11.43
2023-04-15T10:03:42.540Z,11.46
2023-04-15T10:08:47.801Z,11.49
2023-04-15T10:13:51.782Z,11.44
2023-04-15T10:18:57.197Z,11.32
2023-04-15T10:24:03.331Z,11.27
2023-04-15T10:29:07.789Z,11.20
2023-04-15T10:34:11.608Z,11.23
2023-04-15T10:39:34.165Z,11.31
2023-04-15T10:44:58.546Z,11.35
2023-04-15T10:50:02.734Z,11.32
2023-04-15T10:55:20.042Z,11.24
2023-04-15T11:00:28.221Z,11.19
2023-04-15T11:05:43.513Z,11.11
2023-04-15T11:10:46.888Z,11.14
2023-04-15T11:15:54.552Z,11.10
2023-04-15T11:21:04.786Z,11.02
2023-04-15T11:26:13.386Z,11.03
2023-04-15T11:31:20.343Z,11.04
2023-04-15T11:36:32.212Z,11.02
2023-04-15T11:41:36.569Z,11.07
2023-04-15T11:46:39.589Z,11.13
2023-04-15T11:51:42.842Z,11.12
2023-04-15T11:56:52.499Z,11.16
2023-04-15T12:01:56.202Z,11.10
2023-04-15T12:07:06.639Z,11.01
2023-04-15T12:12:11.961Z,10.84
2023-04-15T12:17:16.764Z,10.79
2023-04-15T12:22:22.346Z,10.76
2023-04-15T12:27:29.715Z,10.62
2023-04-15T12:32:36.619Z,10.50
2023-04-15T12:37:39.574Z,10.44
2023-04-15T12:42:42.907Z,10.44
2023-04-15T12:47:45.873Z,10.47
2023-04-15T12:52:49.028Z,10.44
2023-04-15T12:57:52.649Z,10.40
2023-04-15T13:02:55.927Z,10.34
2023-04-15T13:07:58.865Z,10.32
2023-04-15T13:13:03.224Z,10.26
2023-04-15T13:18:07.959Z,10.28
2023-04-15T13:23:10.934Z,10.34
2023-04-15T13:28:14.019Z,10.40
2023-04-15T13:33:18.144Z,10.49
2023-04-15T13:38:21.508Z,10.68
2023-04-15T13:43:24.500Z,10.98
2023-04-15T13:48:27.656Z,11.11
2023-04-15T13:53:38.049Z,11.14
2023-04-15T13:58:42.356Z,10.99
2023-04-15T14:03:45.484Z,10.71
2023-04-15T14:08:48.801Z,10.50
2023-04-15T14:13:54.808Z,10.42
2023-04-15T14:18:58.565Z,10.35
2023-04-15T14:24:01.764Z,10.33
2023-04-15T14:29:05.288Z,10.37
2023-04-15T14:34:08.558Z,10.43
2023-04-15T14:39:11.738Z,10.34
2023-04-15T14:44:14.719Z,10.14
2023-04-15T14:49:17.900Z,10.05
2023-04-15T14:54:22.345Z,10.01
2023-04-15T14:59:25.672Z,10.03
2023-04-15T15:04:29.512Z,10.10
2023-04-15T15:09:34.522Z,10.16
2023-04-15T15:14:37.969Z,10.14
2023-04-15T15:19:41.094Z,10.07
2023-04-15T15:24:44.005Z,9.97
2023-04-15T15:29:47.182Z,9.88
2023-04-15T15:34:50.113Z,9.80
2023-04-15T15:39:53.615Z,9.74
2023-04-15T15:44:56.500Z,9.71
2023-04-15T15:50:02.721Z,9.65
2023-04-15T15:55:08.337Z,9.63
2023-04-15T16:00:13.089Z,9.56
2023-04-15T16:05:16.596Z,9.50
2023-04-15T16:10:20.236Z,9.46
2023-04-15T16:15:27.271Z,9.41
2023-04-15T16:20:30.470Z,9.38
2023-04-15T16:25:33.308Z,9.33
2023-04-15T16:30:38.951Z,9.30
2023-04-15T16:35:41.908Z,9.26
2023-04-15T16:40:46.305Z,9.23
2023-04-15T16:45:52.120Z,9.20
2023-04-15T16:50:57.325Z,9.16
2023-04-15T16:56:00.585Z,9.11
2023-04-15T17:01:03.918Z,9.07
2023-04-15T17:06:07.009Z,8.99
2023-04-15T17:11:12.099Z,8.91
2023-04-15T17:16:16.111Z,8.82
2023-04-15T17:21:19.378Z,8.76
2023-04-15T17:26:23.005Z,8.71
2023-04-15T17:31:29.800Z,8.65
2023-04-15T17:36:33.038Z,8.61
2023-04-15T17:41:36.594Z,8.56
2023-04-15T17:46:40.320Z,8.51
2023-04-15T17:51:45.153Z,8.44
2023-04-15T17:56:49.525Z,8.39
2023-04-15T18:01:52.809Z,8.32
2023-04-15T18:06:56.975Z,8.25
2023-04-15T18:12:02.170Z,8.16
2023-04-15T18:17:05.579Z,8.05
2023-04-15T18:22:08.556Z,7.95
2023-04-15T18:27:13.585Z,7.85
2023-04-15T18:32:20.398Z,7.78
2023-04-15T18:37:25.885Z,7.72
2023-04-15T18:42:31.046Z,7.65
2023-04-15T18:47:36.496Z,7.59
2023-04-15T18:52:40.960Z,7.51
2023-04-15T18:57:44.956Z,7.45
2023-04-15T19:02:48.525Z,7.40
2023-04-15T19:07:51.773Z,7.35
2023-04-15T19:12:55.781Z,7.33
2023-04-15T19:17:58.810Z,7.33
2023-04-15T19:23:01.873Z,7.33
2023-04-15T19:28:04.982Z,7.31
2023-04-15T19:33:08.209Z,7.29
2023-04-15T19:38:11.675Z,7.28
2023-04-15T19:43:14.671Z,7.28
2023-04-15T19:48:19.045Z,7.28
2023-04-15T19:53:23.230Z,7.29
2023-04-15T19:58:26.611Z,7.28
2023-04-15T20:03:31.267Z,7.27
2023-04-15T20:08:36.062Z,7.28
2023-04-15T20:13:39.282Z,7.28
2023-04-15T20:18:42.459Z,7.28
2023-04-15T20:23:46.206Z,7.30
2023-04-15T20:28:49.193Z,7.32
2023-04-15T20:33:53.918Z,7.33
2023-04-15T20:38:58.481Z,7.36
2023-04-15T20:44:01.782Z,7.38
2023-04-15T20:49:05.454Z,7.41
2023-04-15T20:54:12.733Z,7.45
2023-04-15T20:59:16.345Z,7.47
2023-04-15T21:04:22.344Z,7.49
2023-04-15T21:09:27.045Z,7.50
2023-04-15T21:14:33.060Z,7.49
2023-04-15T21:19:37.596Z,7.49
2023-04-15T21:24:40.619Z,7.49
2023-04-15T21:29:44.947Z,7.49
2023-04-15T21:34:49.155Z,7.49
2023-04-15T21:39:52.026Z,7.51
2023-04-15T21:44:54.991Z,7.49
2023-04-15T21:49:57.851Z,7.48
2023-04-15T21:55:00.984Z,7.46
2023-04-15T22:00:06.351Z,7.44
2023-04-15T22:05:09.238Z,7.43
2023-04-15T22:10:12.126Z,7.42
2023-04-15T22:15:15.740Z,7.40
2023-04-15T22:20:18.741Z,7.36
2023-04-15T22:25:21.640Z,7.35
2023-04-15T22:30:24.810Z,7.32
2023-04-15T22:35:27.732Z,7.31
2023-04-15T22:40:30.987Z,7.31
2023-04-15T22:45:33.838Z,7.30
2023-04-15T22:50:38.132Z,7.28
2023-04-15T22:55:46.824Z,7.27
2023-04-15T23:00:50.408Z,7.26
2023-04-15T23:05:53.411Z,7.24
2023-04-15T23:10:56.761Z,7.24
2023-04-15T23:15:59.696Z,7.24
2023-04-15T23:21:04.282Z,7.23
2023-04-15T23:26:07.118Z,7.20
2023-04-15T23:31:11.230Z,7.20
2023-04-15T23:36:14.191Z,7.19
2023-04-15T23:41:17.132Z,7.19
2023-04-15T23:46:20.133Z,7.19
2023-04-15T23:51:23.057Z,7.19
2023-04-15T23:56:25.941Z,7.17
